createdAt,value
2018-01-18T00:01:01.188Z,99860.23
2018-01-18T00:03:28.641Z,99868.45
2018-01-18T00:05:56.077Z,99869.33
2018-01-18T00:08:23.706Z,99854.09
2018-01-18T00:10:51.142Z,99854.48
2018-01-18T00:13:18.575Z,99859.41
2018-01-18T00:15:46.041Z,99852.33
2018-01-18T00:18:13.472Z,99849.89
2018-01-18T00:20:41.105Z,99847.31
2018-01-18T00:23:08.540Z,99837.30
2018-01-18T00:25:35.973Z,99847.84
2018-01-18T00:28:03.432Z,99844.18
2018-01-18T00:30:30.865Z,99832.02
2018-01-18T00:32:58.509Z,99827.53
2018-01-18T00:35:25.947Z,99833.47
2018-01-18T00:37:53.378Z,99832.61
2018-01-18T00:40:20.845Z,99828.78
2018-01-18T00:42:48.282Z,99827.65
2018-01-18T00:45:15.962Z,99830.64
2018-01-18T00:47:43.392Z,99839.17
2018-01-18T00:50:10.825Z,99837.20
2018-01-18T00:52:38.281Z,99830.95
2018-01-18T00:55:05.708Z,99827.95
2018-01-18T00:57:33.449Z,99822.19
2018-01-18T01:00:00.889Z,99820.75
2018-01-18T01:02:28.321Z,99818.73
2018-01-18T01:04:55.776Z,99809.53
2018-01-18T01:07:23.215Z,99804.50
2018-01-18T01:09:50.833Z,99798.47
2018-01-18T01:12:18.268Z,99795.79
2018-01-18T01:14:45.711Z,99796.05
2018-01-18T01:17:13.219Z,99791.86
2018-01-18T01:19:40.632Z,99780.45
2018-01-18T01:22:08.325Z,99769.14
2018-01-18T01:24:35.761Z,99777.80
2018-01-18T01:27:03.196Z,99769.86
2018-01-18T01:29:30.673Z,99763.52
2018-01-18T01:31:58.136Z,99765.92
2018-01-18T01:34:26.013Z,99760.73
2018-01-18T01:36:53.452Z,99764.06
2018-01-18T01:39:20.885Z,99763.70
2018-01-18T01:41:48.336Z,99762.63
2018-01-18T01:44:15.768Z,99767.27
2018-01-18T01:46:43.254Z,99766.20
2018-01-18T01:49:10.688Z,99757.30
2018-01-18T01:51:38.121Z,99752.02
2018-01-18T01:54:05.575Z,99748.83
2018-01-18T01:56:33.009Z,99735.50
2018-01-18T01:59:00.782Z,99732.25
2018-01-18T02:01:28.217Z,99716.48
2018-01-18T02:03:55.652Z,99708.08
2018-01-18T02:06:23.415Z,99695.27
2018-01-18T02:08:50.848Z,99696.02
2018-01-18T02:11:18.576Z,99675.47
2018-01-18T02:13:46.007Z,99669.30
2018-01-18T02:16:13.449Z,99667.16
2018-01-18T02:18:40.905Z,99667.33
2018-01-18T02:21:08.332Z,99660.05
2018-01-18T02:23:36.072Z,99652.68
2018-01-18T02:26:03.501Z,99653.56
2018-01-18T02:28:30.937Z,99663.95
2018-01-18T02:30:58.398Z,99641.23
2018-01-18T02:33:25.829Z,99641.87
2018-01-18T02:35:53.661Z,99638.17
2018-01-18T02:38:21.098Z,99633.52
2018-01-18T02:40:48.535Z,99627.13
2018-01-18T02:43:16.014Z,99623.86
2018-01-18T02:45:43.453Z,99615.19
2018-01-18T02:48:11.141Z,99614.94
2018-01-18T02:50:38.578Z,99606.17
2018-01-18T02:53:06.033Z,99599.88
2018-01-18T02:55:33.489Z,99585.79
2018-01-18T02:58:00.928Z,99579.80
2018-01-18T03:00:28.429Z,99571.62
2018-01-18T03:02:55.865Z,99574.25
2018-01-18T03:05:23.297Z,99556.63
2018-01-18T03:07:50.829Z,99553.56
2018-01-18T03:10:18.273Z,99544.96
2018-01-18T03:12:45.997Z,99535.13
2018-01-18T03:15:13.434Z,99533.66
2018-01-18T03:17:40.880Z,99538.67
2018-01-18T03:20:08.341Z,99527.77
2018-01-18T03:22:35.780Z,99512.77
2018-01-18T03:25:03.244Z,99505.67
2018-01-18T03:27:30.677Z,99499.30
2018-01-18T03:29:58.109Z,99491.67
2018-01-18T03:32:25.633Z,99486.80
2018-01-18T03:34:53.080Z,99473.55
2018-01-18T03:37:20.553Z,99462.22
2018-01-18T03:39:47.982Z,99446.77
2018-01-18T03:42:15.417Z,99444.69
2018-01-18T03:44:42.870Z,99428.72
2018-01-18T03:47:10.305Z,99421.83
2018-01-18T03:49:37.764Z,99403.20
2018-01-18T03:52:05.253Z,99398.39
2018-01-18T03:54:32.688Z,99387.40
2018-01-18T03:57:00.157Z,99377.18
2018-01-18T03:59:27.600Z,99364.75
2018-01-18T04:01:55.053Z,99357.26
2018-01-18T04:04:22.518Z,99347.45
2018-01-18T04:06:49.953Z,99328.16
2018-01-18T04:09:17.424Z,99318.01
2018-01-18T04:11:44.876Z,99310.02
2018-01-18T04:14:12.309Z,99306.33
2018-01-18T04:16:39.760Z,99288.08
2018-01-18T04:19:07.193Z,99287.42
2018-01-18T04:21:34.620Z,99273.84
2018-01-18T04:24:02.093Z,99266.45
2018-01-18T04:26:29.524Z,99252.47
2018-01-18T04:28:56.963Z,99251.81
2018-01-18T04:31:24.432Z,99254.13
2018-01-18T04:33:51.871Z,99244.44
2018-01-18T04:36:19.300Z,99232.64
2018-01-18T04:38:46.752Z,99230.28
2018-01-18T04:41:14.253Z,99224.80
2018-01-18T04:43:41.689Z,99207.45
2018-01-18T04:46:09.141Z,99203.52
2018-01-18T04:48:36.570Z,99181.64
2018-01-18T04:51:04.005Z,99173.40
2018-01-18T04:53:31.457Z,99171.22
2018-01-18T04:55:58.888Z,99154.59
2018-01-18T04:58:26.352Z,99145.50
2018-01-18T05:00:53.804Z,99138.39
2018-01-18T05:03:21.246Z,99112.81
2018-01-18T05:05:48.676Z,99119.59
2018-01-18T05:08:16.133Z,99110.83
2018-01-18T05:10:43.566Z,99102.20
2018-01-18T05:13:11.002Z,99102.55
2018-01-18T05:15:38.457Z,99083.29
2018-01-18T05:18:05.905Z,99080.31
2018-01-18T05:20:33.345Z,99065.21
2018-01-18T05:23:00.828Z,99059.80
2018-01-18T05:25:28.282Z,99054.88
2018-01-18T05:27:55.716Z,99044.06
2018-01-18T05:30:23.304Z,99026.69
2018-01-18T05:32:50.737Z,99030.94
2018-01-18T05:35:18.168Z,99030.91
2018-01-18T05:37:45.944Z,99022.12
2018-01-18T05:40:13.373Z,99019.84
2018-01-18T05:42:40.806Z,99017.12
2018-01-18T05:45:08.277Z,99015.34
2018-01-18T05:47:35.809Z,99004.88
2018-01-18T05:50:03.243Z,98995.83
2018-01-18T05:52:30.989Z,98993.64
2018-01-18T05:54:58.433Z,98988.92
2018-01-18T05:57:25.864Z,98979.89
2018-01-18T05:59:53.357Z,98975.88
2018-01-18T06:02:20.796Z,98962.59
2018-01-18T06:04:48.228Z,98973.39
2018-01-18T06:07:15.796Z,98977.22
2018-01-18T06:09:43.229Z,98967.54
2018-01-18T06:12:10.660Z,98965.47
2018-01-18T06:14:38.324Z,98958.86
2018-01-18T06:17:05.762Z,98964.72
2018-01-18T06:19:33.201Z,98956.28
2018-01-18T06:22:00.880Z,98945.84
2018-01-18T06:24:28.320Z,98948.13
2018-01-18T06:26:55.756Z,98937.81
2018-01-18T06:29:23.224Z,98938.60
2018-01-18T06:31:50.656Z,98929.16
2018-01-18T06:34:18.093Z,98917.94
2018-01-18T06:36:45.570Z,98917.97
2018-01-18T06:39:13.005Z,98914.89
2018-01-18T06:41:40.440Z,98922.45
2018-01-18T06:44:07.897Z,98912.77
2018-01-18T06:46:35.330Z,98906.50
2018-01-18T06:49:02.765Z,98914.26
2018-01-18T06:51:30.237Z,98915.17
2018-01-18T06:53:57.677Z,98909.06
2018-01-18T06:56:25.119Z,98876.43
2018-01-18T06:58:52.576Z,98872.84
2018-01-18T07:01:20.008Z,98862.20
2018-01-18T07:03:47.653Z,98850.93
2018-01-18T07:06:15.086Z,98858.59
2018-01-18T07:08:42.525Z,98850.92
2018-01-18T07:11:10.015Z,98847.93
2018-01-18T07:13:37.453Z,98845.27
2018-01-18T07:16:05.353Z,98827.99
2018-01-18T07:18:32.849Z,98817.56
2018-01-18T07:21:00.289Z,98805.78
2018-01-18T07:23:27.765Z,98814.83
2018-01-18T07:25:56.077Z,98814.63
2018-01-18T07:28:23.638Z,98792.28
2018-01-18T07:30:51.245Z,98785.59
2018-01-18T07:33:18.707Z,98782.19
2018-01-18T07:35:46.164Z,98783.69
2018-01-18T07:38:13.601Z,98777.58
2018-01-18T07:40:41.229Z,98762.47
2018-01-18T07:43:08.660Z,98767.42
2018-01-18T07:45:36.113Z,98778.20
2018-01-18T07:48:03.573Z,98755.00
2018-01-18T07:50:31.032Z,98749.45
2018-01-18T07:52:58.521Z,98745.94
2018-01-18T07:55:25.960Z,98748.72
2018-01-18T07:57:53.397Z,98745.83
2018-01-18T08:00:20.848Z,98735.20
2018-01-18T08:02:53.891Z,98708.00
2018-01-18T08:05:21.365Z,98703.02
2018-01-18T08:07:48.817Z,98687.34
2018-01-18T08:10:16.304Z,98686.39
2018-01-18T08:12:43.742Z,98684.95
2018-01-18T08:15:11.201Z,98674.25
2018-01-18T08:17:38.658Z,98661.69
2018-01-18T08:20:06.115Z,98654.88
2018-01-18T08:22:33.745Z,98635.54
2018-01-18T08:25:01.233Z,98626.24
2018-01-18T08:27:28.676Z,98605.99
2018-01-18T08:29:56.157Z,98623.23
2018-01-18T08:32:23.596Z,98647.62
2018-01-18T08:34:51.311Z,98664.67
2018-01-18T08:37:18.754Z,98677.05
2018-01-18T08:39:46.185Z,98674.56
2018-01-18T08:42:13.673Z,98676.22
2018-01-18T08:44:41.114Z,98676.06
2018-01-18T08:47:08.597Z,98689.44
2018-01-18T08:49:36.029Z,98651.00
2018-01-18T08:52:03.460Z,98637.80
2018-01-18T08:54:31.053Z,98649.62
2018-01-18T08:56:58.522Z,98622.11
2018-01-18T08:59:26.193Z,98613.41
2018-01-18T09:01:53.656Z,98617.37
2018-01-18T09:04:22.005Z,98621.67
2018-01-18T09:06:49.484Z,98610.44
2018-01-18T09:09:16.933Z,98607.44
2018-01-18T09:11:44.443Z,98592.72
2018-01-18T09:14:11.876Z,98592.22
2018-01-18T09:16:39.313Z,98584.98
2018-01-18T09:19:06.760Z,98590.19
2018-01-18T09:21:34.192Z,98569.07
2018-01-18T09:24:01.975Z,98561.42
2018-01-18T09:26:29.414Z,98554.11
2018-01-18T09:28:56.869Z,98548.73
2018-01-18T09:31:24.335Z,98558.47
2018-01-18T09:33:51.783Z,98549.50
2018-01-18T09:36:19.467Z,98528.08
2018-01-18T09:38:46.906Z,98541.75
2018-01-18T09:41:14.337Z,98536.45
2018-01-18T09:43:41.825Z,98522.87
2018-01-18T09:46:09.276Z,98520.44
2018-01-18T09:48:36.888Z,98515.48
2018-01-18T09:51:04.337Z,98515.57
2018-01-18T09:53:31.789Z,98505.31
2018-01-18T09:55:59.245Z,98519.80
2018-01-18T09:58:26.693Z,98497.22
2018-01-18T10:00:54.173Z,98490.73
2018-01-18T10:03:21.622Z,98490.30
2018-01-18T10:05:49.113Z,98473.92
2018-01-18T10:08:16.582Z,98475.69
2018-01-18T10:10:44.027Z,98479.74
2018-01-18T10:13:11.638Z,98484.27
2018-01-18T10:15:39.077Z,98497.88
2018-01-18T10:18:06.516Z,98503.88
2018-01-18T10:20:33.990Z,98505.39
2018-01-18T10:23:01.456Z,98516.09
2018-01-18T10:25:28.913Z,98511.47
2018-01-18T10:27:56.367Z,98511.58
2018-01-18T10:30:23.812Z,98504.79
2018-01-18T10:32:51.269Z,98523.41
2018-01-18T10:35:18.713Z,98523.30
2018-01-18T10:37:46.193Z,98508.38
2018-01-18T10:40:13.641Z,98512.27
2018-01-18T10:42:41.080Z,98500.44
2018-01-18T10:45:08.541Z,98493.57
2018-01-18T10:47:35.977Z,98491.83
2018-01-18T10:50:03.874Z,98485.76
2018-01-18T10:52:31.313Z,98513.70
2018-01-18T10:54:58.769Z,98490.42
2018-01-18T10:57:26.225Z,98506.53
2018-01-18T10:59:53.661Z,98488.74
2018-01-18T11:02:21.361Z,98503.83
2018-01-18T11:04:48.821Z,98499.25
2018-01-18T11:07:16.266Z,98505.23
2018-01-18T11:09:43.746Z,98526.08
2018-01-18T11:12:11.190Z,98535.94
2018-01-18T11:14:38.851Z,98518.57
2018-01-18T11:17:06.309Z,98525.70
2018-01-18T11:19:33.757Z,98543.50
2018-01-18T11:22:01.220Z,98571.17
2018-01-18T11:24:28.665Z,98591.50
2018-01-18T11:26:56.544Z,98592.08
2018-01-18T11:29:24.013Z,98613.45
2018-01-18T11:31:51.457Z,98594.25
2018-01-18T11:34:18.913Z,98574.97
2018-01-18T11:36:46.345Z,98592.81
2018-01-18T11:39:14.030Z,98602.26
2018-01-18T11:41:41.518Z,98628.97
2018-01-18T11:44:08.953Z,98626.24
2018-01-18T11:46:36.452Z,98631.94
2018-01-18T11:49:03.885Z,98643.23
2018-01-18T11:51:31.612Z,98631.94
2018-01-18T11:53:59.045Z,98635.38
2018-01-18T11:56:26.532Z,98634.82
2018-01-18T11:58:53.993Z,98638.89
2018-01-18T12:01:21.432Z,98634.92
2018-01-18T12:03:49.109Z,98664.80
2018-01-18T12:06:16.565Z,98665.70
2018-01-18T12:08:44.001Z,98652.65
2018-01-18T12:11:11.453Z,98645.58
2018-01-18T12:13:38.897Z,98653.37
2018-01-18T12:16:06.398Z,98671.04
2018-01-18T12:18:33.832Z,98677.50
2018-01-18T12:21:01.288Z,98644.80
2018-01-18T12:23:28.744Z,98698.45
2018-01-18T12:25:56.190Z,98684.29
2018-01-18T12:28:23.997Z,98702.17
2018-01-18T12:30:51.439Z,98722.94
2018-01-18T12:33:18.882Z,98702.41
2018-01-18T12:35:46.349Z,98701.16
2018-01-18T12:38:13.801Z,98714.42
2018-01-18T12:40:41.363Z,98724.50
2018-01-18T12:43:08.801Z,98732.53
2018-01-18T12:45:36.237Z,98721.27
2018-01-18T12:48:03.713Z,98727.64
2018-01-18T12:50:31.247Z,98739.23
2018-01-18T12:52:58.851Z,98733.53
2018-01-18T12:55:26.308Z,98726.06
2018-01-18T12:57:53.753Z,98728.39
2018-01-18T13:00:21.216Z,98728.59
2018-01-18T13:02:48.649Z,98722.31
2018-01-18T13:05:16.457Z,98735.06
2018-01-18T13:07:43.901Z,98756.31
2018-01-18T13:10:11.383Z,98739.84
2018-01-18T13:12:38.963Z,98754.92
2018-01-18T13:15:06.409Z,98738.66
2018-01-18T13:17:34.145Z,98760.81
2018-01-18T13:20:01.589Z,98768.84
2018-01-18T13:22:29.025Z,98769.61
2018-01-18T13:24:56.481Z,98758.05
2018-01-18T13:27:24.096Z,98762.52
2018-01-18T13:29:52.087Z,98779.31
2018-01-18T13:32:19.534Z,98795.05
2018-01-18T13:34:46.968Z,98803.66
2018-01-18T13:37:14.426Z,98799.52
2018-01-18T13:39:41.867Z,98798.73
2018-01-18T13:42:09.340Z,98811.33
2018-01-18T13:44:36.925Z,98805.88
2018-01-18T13:47:04.361Z,98811.94
2018-01-18T13:49:31.820Z,98821.77
2018-01-18T13:51:59.269Z,98813.71
2018-01-18T13:54:26.922Z,98828.09
2018-01-18T13:56:54.369Z,98836.94
2018-01-18T13:59:21.816Z,98832.22
2018-01-18T14:01:49.301Z,98848.98
2018-01-18T14:04:16.770Z,98847.74
2018-01-18T14:06:44.401Z,98848.27
2018-01-18T14:09:11.841Z,98851.98
2018-01-18T14:11:39.325Z,98854.77
2018-01-18T14:14:06.790Z,98874.89
2018-01-18T14:16:34.229Z,98866.82
2018-01-18T14:19:01.729Z,98868.33
2018-01-18T14:21:29.171Z,98863.78
2018-01-18T14:23:56.613Z,98872.09
2018-01-18T14:26:24.145Z,98874.20
2018-01-18T14:28:51.585Z,98879.94
2018-01-18T14:31:19.089Z,98887.92
2018-01-18T14:33:46.563Z,98887.87
2018-01-18T14:36:13.999Z,98894.64
2018-01-18T14:38:41.788Z,98894.67
2018-01-18T14:41:09.239Z,98885.54
2018-01-18T14:43:36.735Z,98900.46
2018-01-18T14:46:04.173Z,98913.91
2018-01-18T14:48:31.622Z,98918.01
2018-01-18T14:50:59.086Z,98921.06
2018-01-18T14:53:26.543Z,98925.20
2018-01-18T14:55:54.114Z,98927.27
2018-01-18T14:58:21.598Z,98932.86
2018-01-18T15:00:49.301Z,98930.24
2018-01-18T15:03:16.764Z,98924.76
2018-01-18T15:05:44.213Z,98933.82
2018-01-18T15:08:11.961Z,98940.13
2018-01-18T15:10:39.433Z,98944.84
2018-01-18T15:13:06.891Z,98947.16
2018-01-18T15:15:34.382Z,98958.27
2018-01-18T15:18:01.829Z,98962.50
2018-01-18T15:20:29.622Z,98984.01
2018-01-18T15:22:57.085Z,98977.22
2018-01-18T15:25:24.516Z,98986.99
2018-01-18T15:27:52.172Z,98983.88
2018-01-18T15:30:19.847Z,98983.58
2018-01-18T15:32:48.125Z,98981.44
2018-01-18T15:35:15.577Z,98983.34
2018-01-18T15:37:43.029Z,98980.55
2018-01-18T15:40:10.498Z,98972.71
2018-01-18T15:42:37.944Z,98983.83
2018-01-18T15:45:05.419Z,98985.16
2018-01-18T15:47:32.857Z,98994.80
2018-01-18T15:50:00.887Z,98993.43
2018-01-18T15:52:28.398Z,99001.66
2018-01-18T15:54:55.841Z,99002.52
2018-01-18T15:57:23.532Z,99002.50
2018-01-18T15:59:50.981Z,99010.13
2018-01-18T16:02:18.440Z,99011.74
2018-01-18T16:04:45.933Z,99011.83
2018-01-18T16:07:13.393Z,99017.11
2018-01-18T16:09:41.154Z,99026.13
2018-01-18T16:12:08.681Z,99028.97
2018-01-18T16:14:36.153Z,99027.95
2018-01-18T16:17:03.627Z,99028.15
2018-01-18T16:19:31.145Z,99032.31
2018-01-18T16:21:58.800Z,99034.13
2018-01-18T16:24:26.258Z,99037.39
2018-01-18T16:26:53.693Z,99046.90
2018-01-18T16:29:21.145Z,99050.24
2018-01-18T16:31:48.989Z,99050.11
2018-01-18T16:34:17.151Z,99052.26
2018-01-18T16:36:44.585Z,99043.58
2018-01-18T16:39:12.054Z,99052.71
2018-01-18T16:41:39.509Z,99057.16
2018-01-18T16:44:06.941Z,99060.45
2018-01-18T16:46:34.705Z,99058.64
2018-01-18T16:49:02.142Z,99066.24
2018-01-18T16:51:29.577Z,99065.05
2018-01-18T16:53:57.059Z,99070.59
2018-01-18T16:58:52.180Z,99072.31
2018-01-18T17:01:19.639Z,99080.83
2018-01-18T17:03:47.253Z,99085.44
2018-01-18T17:06:14.718Z,99085.42
2018-01-18T17:08:42.154Z,99087.64
2018-01-18T17:11:09.636Z,99087.84
2018-01-18T17:13:37.072Z,99087.03
2018-01-18T17:16:04.505Z,99083.12
2018-01-18T17:18:32.013Z,99075.52
2018-01-18T17:20:59.445Z,99087.75
2018-01-18T17:23:27.129Z,99096.52
2018-01-18T17:25:54.592Z,99095.69
2018-01-18T17:28:22.028Z,99110.20
2018-01-18T17:30:49.500Z,99107.36
2018-01-18T17:33:16.932Z,99117.04
2018-01-18T17:35:44.655Z,99114.73
2018-01-18T17:38:12.092Z,99126.09
2018-01-18T17:40:39.677Z,99142.49
2018-01-18T17:43:07.168Z,99142.42
2018-01-18T17:45:34.619Z,99135.13
2018-01-18T17:48:02.077Z,99140.39
2018-01-18T17:50:29.545Z,99144.59
2018-01-18T17:52:56.985Z,99142.45
2018-01-18T17:55:24.441Z,99142.89
2018-01-18T17:57:51.881Z,99139.87
2018-01-18T18:00:19.361Z,99145.23
2018-01-18T18:02:46.804Z,99138.25
2018-01-18T18:05:14.245Z,99140.31
2018-01-18T18:07:41.711Z,99140.13
2018-01-18T18:10:09.142Z,99151.62
2018-01-18T18:12:36.821Z,99143.73
2018-01-18T18:15:04.262Z,99152.55
2018-01-18T18:17:31.720Z,99156.73
2018-01-18T18:19:59.210Z,99152.19
2018-01-18T18:22:26.673Z,99165.00
2018-01-18T18:24:54.485Z,99166.39
2018-01-18T18:27:21.918Z,99170.59
2018-01-18T18:29:49.381Z,99176.40
2018-01-18T18:32:16.839Z,99182.22
2018-01-18T18:34:44.294Z,99181.67
2018-01-18T18:37:11.977Z,99182.09
2018-01-18T18:39:39.429Z,99182.73
2018-01-18T18:42:06.873Z,99185.37
2018-01-18T18:44:34.337Z,99197.07
2018-01-18T18:47:01.777Z,99198.80
2018-01-18T18:49:29.323Z,99200.34
2018-01-18T18:51:56.744Z,99208.54
2018-01-18T18:54:24.181Z,99210.89
2018-01-18T18:56:51.661Z,99198.80
2018-01-18T18:59:19.113Z,99209.55
2018-01-18T19:01:46.609Z,99211.97
2018-01-18T19:04:14.053Z,99218.82
2018-01-18T19:06:41.489Z,99219.75
2018-01-18T19:09:08.958Z,99207.05
2018-01-18T19:11:36.405Z,99213.25
2018-01-18T19:14:04.024Z,99205.61
2018-01-18T19:16:31.457Z,99206.69
2018-01-18T19:18:58.893Z,99197.14
2018-01-18T19:21:26.388Z,99188.89
2018-01-18T19:23:53.842Z,99203.41
2018-01-18T19:26:21.323Z,99206.96
2018-01-18T19:28:48.760Z,99204.44
2018-01-18T19:31:16.193Z,99196.00
2018-01-18T19:33:43.648Z,99205.39
2018-01-18T19:36:11.077Z,99216.50
2018-01-18T19:38:38.788Z,99221.97
2018-01-18T19:41:06.230Z,99225.14
2018-01-18T19:43:33.684Z,99229.28
2018-01-18T19:46:01.142Z,99234.78
2018-01-18T19:48:28.580Z,99237.28
2018-01-18T19:50:56.117Z,99241.98
2018-01-18T19:53:23.552Z,99249.07
2018-01-18T19:55:50.997Z,99245.02
2018-01-18T19:58:19.005Z,99237.13
2018-01-18T20:00:46.437Z,99234.67
2018-01-18T20:03:14.074Z,99232.02
2018-01-18T20:05:41.551Z,99238.41
2018-01-18T20:08:08.997Z,99247.44
2018-01-18T20:10:36.456Z,99246.21
2018-01-18T20:13:03.901Z,99255.29
2018-01-18T20:15:31.369Z,99240.31
2018-01-18T20:17:58.809Z,99233.41
2018-01-18T20:20:26.245Z,99228.12
2018-01-18T20:22:53.718Z,99222.66
2018-01-18T20:25:21.161Z,99227.20
2018-01-18T20:27:48.746Z,99226.62
2018-01-18T20:30:16.186Z,99215.14
2018-01-18T20:32:43.634Z,99207.24
2018-01-18T20:35:11.100Z,99214.77
2018-01-18T20:37:38.533Z,99212.38
2018-01-18T20:40:06.485Z,99226.46
2018-01-18T20:42:33.914Z,99234.61
2018-01-18T20:45:01.379Z,99237.27
2018-01-18T20:47:28.837Z,99234.86
2018-01-18T20:49:56.866Z,99243.75
2018-01-18T20:52:24.551Z,99243.15
2018-01-18T20:54:52.013Z,99235.60
2018-01-18T20:57:19.465Z,99237.94
2018-01-18T20:59:46.929Z,99230.41
2018-01-18T21:02:14.365Z,99230.88
2018-01-18T21:04:42.019Z,99231.33
2018-01-18T21:07:09.456Z,99228.21
2018-01-18T21:09:36.897Z,99219.22
2018-01-18T21:12:04.360Z,99220.55
2018-01-18T21:14:31.797Z,99219.39
2018-01-18T21:16:59.356Z,99224.35
2018-01-18T21:19:26.793Z,99219.14
2018-01-18T21:21:54.237Z,99221.65
2018-01-18T21:24:21.745Z,99221.20
2018-01-18T21:26:49.185Z,99216.67
2018-01-18T21:29:16.667Z,99218.85
2018-01-18T21:31:44.119Z,99214.92
2018-01-18T21:34:11.569Z,99200.41
2018-01-18T21:36:39.037Z,99204.98
2018-01-18T21:39:06.477Z,99203.19
2018-01-18T21:41:34.401Z,99199.93
2018-01-18T21:44:01.837Z,99198.59
2018-01-18T21:46:29.280Z,99205.78
2018-01-18T21:48:56.740Z,99193.34
2018-01-18T21:51:24.189Z,99194.13
2018-01-18T21:53:51.949Z,99188.78
2018-01-18T21:56:19.392Z,99185.86
2018-01-18T21:58:46.857Z,99182.03
2018-01-18T22:01:14.315Z,99183.73
2018-01-18T22:03:41.749Z,99175.73
2018-01-18T22:06:09.432Z,99177.05
2018-01-18T22:08:36.905Z,99179.20
2018-01-18T22:11:04.345Z,99180.59
2018-01-18T22:13:31.807Z,99183.61
2018-01-18T22:15:59.262Z,99175.19
2018-01-18T22:18:26.940Z,99178.77
2018-01-18T22:20:54.386Z,99191.61
2018-01-18T22:23:21.841Z,99194.30
2018-01-18T22:25:49.314Z,99200.87
2018-01-18T22:28:16.752Z,99202.14
2018-01-18T22:30:44.213Z,99203.02
2018-01-18T22:33:11.648Z,99206.28
2018-01-18T22:35:39.085Z,99225.81
2018-01-18T22:38:06.565Z,99225.47
2018-01-18T22:40:34.008Z,99235.95
2018-01-18T22:43:01.614Z,99227.19
2018-01-18T22:45:29.048Z,99218.38
2018-01-18T22:47:56.482Z,99230.56
2018-01-18T22:50:23.948Z,99222.72
2018-01-18T22:52:51.382Z,99216.28
2018-01-18T22:55:18.849Z,99227.28
2018-01-18T22:57:46.281Z,99233.35
2018-01-18T23:00:18.290Z,99226.30
2018-01-18T23:02:45.746Z,99218.89
2018-01-18T23:05:13.185Z,99227.55
2018-01-18T23:07:40.735Z,99220.98
2018-01-18T23:10:08.169Z,99218.39
2018-01-18T23:12:35.897Z,99209.81
2018-01-18T23:15:03.329Z,99206.73
2018-01-18T23:17:30.769Z,99192.23
2018-01-18T23:19:58.222Z,99164.78
2018-01-18T23:22:25.652Z,99183.45
2018-01-18T23:24:53.381Z,99188.11
2018-01-18T23:27:20.820Z,99204.92
2018-01-18T23:29:48.261Z,99202.28
2018-01-18T23:32:15.728Z,99207.66
2018-01-18T23:34:43.264Z,99216.64
2018-01-18T23:37:10.872Z,99220.99
2018-01-18T23:39:38.304Z,99215.75
2018-01-18T23:42:05.740Z,99217.52
2018-01-18T23:44:33.199Z,99231.58
2018-01-18T23:47:00.636Z,99226.41
2018-01-18T23:49:28.462Z,99223.97
2018-01-18T23:51:55.899Z,99218.09
2018-01-18T23:54:23.352Z,99228.34
2018-01-18T23:56:50.813Z,99209.95
2018-01-18T23:59:18.246Z,99217.63
